Terminal Aerodrome Forecast
Issued by NWS

Home | Current Version | Previous Version | Text Only | Print | Product List | Glossary On
Versions: 1 2 3 4 5 6 7 8 9 10 11 12 13 14 15 16 17 18 19 20 21
000
FTUS43 KGRR 031740
TAFMKG
TAF
KMKG 031740Z 0318/0418 28006KT P6SM -SN OVC025
     FM040900 VRB03KT P6SM BKN030
     FM041600 15007KT 2SM -SN OVC025
     FM041700 15008KT 1 1/2SM -SN OVC025=

USA.gov is the U.S. government's official web portal to all federal, state and local government web resources and services.